Kezdőlap
METAR-TAF:

METAR-TAF

Repülőterek :

Doylestown Airport

Doylestown, Pennsylvania, Amerikai Egyesült Államok

földrajzi szélesség: 40-19-48N, földrajzi hosszúság: 075-07-21W, magasság: 120 m

Jelenlegi meteorológiai megfigyelések

A jelentés 39 perccel ezelõtt készült, 13:54 UTC
Északnyugati szél 7 kt
Hőmérséklet -5°C
Páratartalom 53%
Légköri nyomás 1031 hPa
Látótávolság: 16.1 km
Derült ég

METAR: KDYL 211354Z AUTO 32007KT 10SM CLR M05/M13 A3046 RMK AO2 SLP326 T10501128

Idő: 09:33 (14:33 UTC)


TAF: hiányzik

Meteorológiai megfigyelések és előrejelzések több, mint 4000 repülőtéren (METAR és TAF jelentéseket).

A térképen piros és sárga pontok jelzik az elérhető meteorológiai állomásokat.

Mozgassa az egeret a pont fölött, hogy megjelenjen az állomás neve.

Azután kattintson az időjárási megfigyelések és előrejelzések megtekintéséhez.

A térkép megváltoztatása: kattintson a fekete keresztel jelölt zöld gombra ráközelítéshez, a vonallal jelölt zöld gombra távolításhoz, vagy a zöld nyilakra a szomszédos térképek eléréséhez.


METAR-TAF: